createdAt,value
2022-08-07T00:00:15.443Z,98488.84
2022-08-07T00:01:44.306Z,98496.81
2022-08-07T00:02:44.265Z,98502.53
2022-08-07T00:03:47.639Z,98490.06
2022-08-07T00:04:49.508Z,98510.44
2022-08-07T00:05:53.197Z,98500.69
2022-08-07T00:06:55.806Z,98512.94
2022-08-07T00:08:04.782Z,98509.16
2022-08-07T00:09:17.143Z,98514.56
2022-08-07T00:10:26.325Z,98516.16
2022-08-07T00:11:30.076Z,98511.66
2022-08-07T00:12:35.123Z,98507.34
2022-08-07T00:13:57.147Z,98508.00
2022-08-07T00:15:01.117Z,98516.69
2022-08-07T00:16:04.780Z,98507.25
2022-08-07T00:17:09.255Z,98502.66
2022-08-07T00:18:19.823Z,98491.34
2022-08-07T00:19:34.111Z,98496.06
2022-08-07T00:20:49.735Z,98488.31
2022-08-07T00:21:56.655Z,98488.63
2022-08-07T00:23:08.045Z,98495.69
2022-08-07T00:24:10.476Z,98496.88
2022-08-07T00:25:16.641Z,98495.28
2022-08-07T00:26:48.679Z,98496.09
2022-08-07T00:27:53.534Z,98495.13
2022-08-07T00:28:58.328Z,98494.81
2022-08-07T00:30:00.042Z,98497.59
2022-08-07T00:31:06.296Z,98493.19
2022-08-07T00:32:15.194Z,98500.38
2022-08-07T00:33:17.542Z,98474.72
2022-08-07T00:34:19.314Z,98500.28
2022-08-07T00:35:23.727Z,98475.44
2022-08-07T00:36:25.837Z,98489.47
2022-08-07T00:37:30.800Z,98491.09
2022-08-07T00:38:50.500Z,98493.28
2022-08-07T00:39:56.232Z,98491.38
2022-08-07T00:40:58.423Z,98442.63
2022-08-07T00:42:01.923Z,98486.38
2022-08-07T00:43:09.820Z,98492.19
2022-08-07T00:44:15.995Z,98494.47
2022-08-07T00:45:21.314Z,98491.31
2022-08-07T00:46:24.547Z,98484.50
2022-08-07T00:48:09.948Z,98482.09
2022-08-07T00:48:49.793Z,98490.28
2022-08-07T00:50:20.158Z,98486.28
2022-08-07T00:51:15.651Z,98490.94
2022-08-07T00:52:20.154Z,98487.75
2022-08-07T00:53:22.220Z,98473.72
2022-08-07T00:54:23.989Z,98461.81
2022-08-07T00:56:02.665Z,98482.28
2022-08-07T00:56:50.199Z,98488.75
2022-08-07T00:57:55.191Z,98489.84
2022-08-07T00:58:58.581Z,98491.44
2022-08-07T01:00:00.446Z,98474.09
2022-08-07T01:01:02.291Z,98486.25
2022-08-07T01:02:09.044Z,98482.28
2022-08-07T01:03:56.942Z,98485.25
2022-08-07T01:04:50.823Z,98488.75
2022-08-07T01:05:55.855Z,98491.75
2022-08-07T01:06:57.866Z,98491.88
2022-08-07T01:07:59.846Z,98492.69
2022-08-07T01:09:02.821Z,98484.59
2022-08-07T01:10:11.099Z,98483.50
2022-08-07T01:12:04.621Z,98487.47
2022-08-07T01:12:38.751Z,98481.78
2022-08-07T01:13:41.542Z,98477.47
2022-08-07T01:15:01.514Z,98481.91
2022-08-07T01:16:07.784Z,98478.69
2022-08-07T01:17:11.039Z,98484.69
2022-08-07T01:18:17.433Z,98469.03
2022-08-07T01:19:20.931Z,98482.59
2022-08-07T01:20:33.478Z,98464.16
2022-08-07T01:21:36.936Z,98485.50
2022-08-07T01:22:46.703Z,98486.00
2022-08-07T01:23:57.632Z,98481.72
2022-08-07T01:25:01.083Z,98488.72
2022-08-07T01:26:12.017Z,98483.13
2022-08-07T01:27:19.852Z,98490.69
2022-08-07T01:28:22.269Z,98494.69
2022-08-07T01:29:27.915Z,98475.16
2022-08-07T01:30:33.825Z,98467.38
2022-08-07T01:31:42.718Z,98485.72
2022-08-07T01:32:50.013Z,98485.50
2022-08-07T01:33:55.007Z,98472.75
2022-08-07T01:34:58.413Z,98483.03
2022-08-07T01:36:06.242Z,98488.41
2022-08-07T01:37:09.657Z,98489.50
2022-08-07T01:38:12.319Z,98488.72
2022-08-07T01:39:14.159Z,98486.31
2022-08-07T01:40:20.942Z,98481.22
2022-08-07T01:41:26.246Z,98482.31
2022-08-07T01:42:37.993Z,98467.94
2022-08-07T01:43:42.180Z,98485.59
2022-08-07T01:44:44.489Z,98480.22
2022-08-07T01:45:50.711Z,98487.19
2022-08-07T01:46:57.405Z,98470.34
2022-08-07T01:48:27.350Z,98471.16
2022-08-07T01:49:26.328Z,98471.66
2022-08-07T01:50:30.046Z,98472.25
2022-08-07T01:52:01.635Z,98478.22
2022-08-07T01:52:58.449Z,98457.97
2022-08-07T01:54:08.906Z,98468.94
2022-08-07T01:55:22.374Z,98468.16
2022-08-07T01:56:29.870Z,98471.13
2022-08-07T01:58:05.728Z,98463.34
2022-08-07T01:59:09.542Z,98473.31
2022-08-07T02:00:17.776Z,98476.53
2022-08-07T02:01:59.781Z,98464.94
2022-08-07T02:03:11.975Z,98462.56
2022-08-07T02:04:27.907Z,98468.25
2022-08-07T02:06:00.072Z,98465.84
2022-08-07T02:07:04.881Z,98459.78
2022-08-07T02:08:13.996Z,98469.03
2022-08-07T02:09:52.461Z,98460.94
2022-08-07T02:10:43.835Z,98469.34
2022-08-07T02:12:04.279Z,98467.94
2022-08-07T02:13:07.888Z,98455.97
2022-08-07T02:14:14.563Z,98467.94
2022-08-07T02:15:35.070Z,98466.63
2022-08-07T02:16:39.756Z,98467.13
2022-08-07T02:17:49.733Z,98470.84
2022-08-07T02:18:54.987Z,98468.94
2022-08-07T02:20:07.817Z,98460.34
2022-08-07T02:21:20.438Z,98465.75
2022-08-07T02:22:25.908Z,98457.66
2022-08-07T02:23:29.407Z,98439.91
2022-08-07T02:24:37.487Z,98457.16
2022-08-07T02:26:26.623Z,98457.88
2022-08-07T02:27:03.297Z,98466.41
2022-08-07T02:28:07.053Z,98465.03
2022-08-07T02:29:14.012Z,98456.16
2022-08-07T02:30:16.141Z,98465.31
2022-08-07T02:31:28.653Z,98453.56
2022-08-07T02:32:33.443Z,98457.16
2022-08-07T02:33:57.143Z,98454.25
2022-08-07T02:35:01.134Z,98453.28
2022-08-07T02:36:30.728Z,98459.34
2022-08-07T02:37:30.674Z,98454.56
2022-08-07T02:38:39.726Z,98440.50
2022-08-07T02:40:02.216Z,98459.94
2022-08-07T02:41:21.708Z,98465.66
2022-08-07T02:42:24.146Z,98450.19
2022-08-07T02:43:28.167Z,98447.00
2022-08-07T02:44:34.635Z,98463.75
2022-08-07T02:45:58.310Z,98463.56
2022-08-07T02:47:05.141Z,98469.16
2022-08-07T02:48:10.247Z,98471.53
2022-08-07T02:49:28.611Z,98467.72
2022-08-07T02:50:43.212Z,98469.34
2022-08-07T02:51:52.081Z,98468.25
2022-08-07T02:53:06.341Z,98466.13
2022-08-07T02:54:10.478Z,98477.13
2022-08-07T02:55:28.653Z,98467.22
2022-08-07T02:56:46.677Z,98472.53
2022-08-07T02:57:50.109Z,98475.22
2022-08-07T02:58:55.359Z,98477.31
2022-08-07T03:00:01.167Z,98481.31
2022-08-07T03:01:16.053Z,98473.53
2022-08-07T03:02:21.496Z,98479.91
2022-08-07T03:03:29.577Z,98469.13
2022-08-07T03:04:50.103Z,98480.09
2022-08-07T03:05:54.650Z,98476.59
2022-08-07T03:06:58.812Z,98473.91
2022-08-07T03:08:10.259Z,98464.22
2022-08-07T03:09:13.927Z,98467.13
2022-08-07T03:10:18.050Z,98473.91
2022-08-07T03:11:28.253Z,98476.84
2022-08-07T03:12:31.210Z,98476.53
2022-08-07T03:13:38.797Z,98475.16
2022-08-07T03:14:42.752Z,98471.34
2022-08-07T03:15:56.395Z,98472.63
2022-08-07T03:17:00.568Z,98470.72
2022-08-07T03:18:06.243Z,98469.34
2022-08-07T03:19:09.271Z,98464.25
2022-08-07T03:20:11.685Z,98476.22
2022-08-07T03:21:18.877Z,98474.00
2022-08-07T03:22:22.557Z,98472.91
2022-08-07T03:23:34.128Z,98476.09
2022-08-07T03:24:49.899Z,98481.50
2022-08-07T03:25:58.136Z,98478.19
2022-08-07T03:27:04.386Z,98486.78
2022-08-07T03:28:38.197Z,98481.41
2022-08-07T03:29:39.340Z,98476.50
2022-08-07T03:30:49.027Z,98466.81
2022-08-07T03:31:52.391Z,98479.28
2022-08-07T03:32:58.402Z,98479.47
2022-08-07T03:34:02.468Z,98475.69
2022-08-07T03:35:16.643Z,98482.03
2022-08-07T03:36:20.378Z,98469.66
2022-08-07T03:37:32.738Z,98480.63
2022-08-07T03:38:40.408Z,98478.63
2022-08-07T03:39:59.159Z,98467.75
2022-08-07T03:41:03.353Z,98466.53
2022-08-07T03:42:07.105Z,98458.25
2022-08-07T03:43:14.781Z,98483.78
2022-08-07T03:44:17.125Z,98485.38
2022-08-07T03:45:33.705Z,98492.97
2022-08-07T03:47:13.539Z,98494.56
2022-08-07T03:48:10.066Z,98498.38
2022-08-07T03:49:13.635Z,98486.78
2022-08-07T03:50:22.980Z,98491.88
2022-08-07T03:51:30.934Z,98485.69
2022-08-07T03:52:51.356Z,98483.66
2022-08-07T03:54:33.133Z,98492.75
2022-08-07T03:55:15.147Z,98464.72
2022-08-07T03:56:33.166Z,98488.97
2022-08-07T03:58:33.205Z,98492.97
2022-08-07T03:59:12.661Z,98494.56
2022-08-07T04:00:15.604Z,98489.66
2022-08-07T04:01:19.778Z,98490.63
2022-08-07T04:02:24.775Z,98492.22
2022-08-07T04:03:26.816Z,98476.78
2022-08-07T04:04:28.678Z,98490.81
2022-08-07T04:05:39.493Z,98491.31
2022-08-07T04:06:44.342Z,98489.09
2022-08-07T04:07:47.309Z,98489.25
2022-08-07T04:08:51.611Z,98497.56
2022-08-07T04:09:55.228Z,98498.06
2022-08-07T04:12:25.746Z,98488.34
2022-08-07T04:12:26.214Z,98493.63
2022-08-07T04:13:30.359Z,98476.56
2022-08-07T04:14:53.126Z,98484.56
2022-08-07T04:15:55.168Z,98489.38
2022-08-07T04:16:58.269Z,98489.59
2022-08-07T04:18:31.385Z,98488.97
2022-08-07T04:19:51.054Z,98485.94
2022-08-07T04:20:54.851Z,98494.53
2022-08-07T04:22:05.364Z,98488.81
2022-08-07T04:23:10.560Z,98488.22
2022-08-07T04:24:30.535Z,98492.69
2022-08-07T04:25:39.330Z,98489.66
2022-08-07T04:26:43.694Z,98484.59
2022-08-07T04:27:59.447Z,98491.91
2022-08-07T04:29:03.008Z,98488.59
2022-08-07T04:30:11.930Z,98493.19
2022-08-07T04:31:38.762Z,98493.88
2022-08-07T04:32:48.330Z,98481.00
2022-08-07T04:34:00.639Z,98505.47
2022-08-07T04:35:05.652Z,98492.94
2022-08-07T04:36:09.137Z,98491.53
2022-08-07T04:37:15.241Z,98496.97
2022-08-07T04:38:23.061Z,98497.44
2022-08-07T04:39:26.256Z,98499.06
2022-08-07T04:40:30.060Z,98493.00
2022-08-07T04:41:36.902Z,98502.72
2022-08-07T04:42:38.799Z,98480.28
2022-08-07T04:44:09.982Z,98502.63
2022-08-07T04:45:11.585Z,98504.53
2022-08-07T04:46:29.303Z,98502.00
2022-08-07T04:47:57.349Z,98502.63
2022-08-07T04:49:38.643Z,98514.72
2022-08-07T04:51:03.330Z,98512.81
2022-08-07T04:52:26.537Z,98507.59
2022-08-07T04:54:05.407Z,98511.88
2022-08-07T04:58:12.541Z,98510.16
2022-08-07T04:58:15.261Z,98505.38
2022-08-07T04:58:27.163Z,98507.31
2022-08-07T05:00:11.169Z,98503.50
2022-08-07T05:01:43.150Z,98521.03
2022-08-07T05:03:17.241Z,98516.13
2022-08-07T05:04:50.110Z,98522.50
2022-08-07T05:06:19.551Z,98520.75
2022-08-07T05:07:48.083Z,98511.53
2022-08-07T05:09:10.988Z,98533.34
2022-08-07T05:10:19.745Z,98530.53
2022-08-07T05:11:57.364Z,98526.22
2022-08-07T05:13:09.847Z,98532.97
2022-08-07T05:14:55.370Z,98520.03
2022-08-07T05:16:04.691Z,98535.06
2022-08-07T05:17:11.815Z,98518.81
2022-08-07T05:18:22.640Z,98538.25
2022-08-07T05:19:32.812Z,98535.22
2022-08-07T05:20:53.907Z,98534.13
2022-08-07T05:22:01.970Z,98533.00
2022-08-07T05:23:31.128Z,98531.72
2022-08-07T05:24:40.653Z,98530.28
2022-08-07T05:26:13.519Z,98537.44
2022-08-07T05:27:18.430Z,98534.59
2022-08-07T05:28:34.084Z,98538.75
2022-08-07T05:29:51.046Z,98540.81
2022-08-07T05:30:57.308Z,98546.91
2022-08-07T05:32:01.106Z,98544.81
2022-08-07T05:33:06.042Z,98541.00
2022-08-07T05:34:13.423Z,98545.97
2022-08-07T05:35:33.038Z,98547.25
2022-08-07T05:36:39.099Z,98547.88
2022-08-07T05:37:42.498Z,98533.09
2022-08-07T05:39:00.302Z,98546.63
2022-08-07T05:40:18.016Z,98551.38
2022-08-07T05:41:21.880Z,98554.09
2022-08-07T05:42:33.761Z,98549.94
2022-08-07T05:44:01.347Z,98550.38
2022-08-07T05:45:14.739Z,98553.84
2022-08-07T05:46:26.458Z,98553.75
2022-08-07T05:47:37.860Z,98542.41
2022-08-07T05:48:59.321Z,98546.41
2022-08-07T05:50:02.499Z,98554.72
2022-08-07T05:51:04.514Z,98564.88
2022-08-07T05:52:06.510Z,98560.00
2022-08-07T05:54:09.345Z,98552.69
2022-08-07T05:54:44.459Z,98558.09
2022-08-07T05:56:03.366Z,98557.91
2022-08-07T05:57:09.337Z,98561.84
2022-08-07T05:58:12.421Z,98552.44
2022-08-07T05:59:17.653Z,98549.88
2022-08-07T06:00:20.195Z,98552.94
2022-08-07T06:01:23.722Z,98566.34
2022-08-07T06:02:30.689Z,98569.78
2022-08-07T06:03:53.599Z,98566.75
2022-08-07T06:04:59.713Z,98578.09
2022-08-07T06:06:01.818Z,98576.03
2022-08-07T06:07:06.131Z,98575.91
2022-08-07T06:08:29.788Z,98571.72
2022-08-07T06:10:04.260Z,98571.56
2022-08-07T06:10:54.686Z,98580.47
2022-08-07T06:11:58.543Z,98571.03
2022-08-07T06:13:02.273Z,98571.91
2022-08-07T06:14:11.645Z,98565.59
2022-08-07T06:15:16.450Z,98582.16
2022-08-07T06:16:23.731Z,98579.31
2022-08-07T06:17:38.138Z,98577.91
2022-08-07T06:18:51.866Z,98579.50
2022-08-07T06:20:04.316Z,98579.91
2022-08-07T06:22:16.687Z,98575.09
2022-08-07T06:22:38.731Z,98579.69
2022-08-07T06:24:38.526Z,98577.00
2022-08-07T06:25:06.030Z,98562.56
2022-08-07T06:26:13.620Z,98567.81
2022-08-07T06:27:44.305Z,98561.06
2022-08-07T06:28:53.612Z,98580.44
2022-08-07T06:29:55.393Z,98580.47
2022-08-07T06:30:58.563Z,98575.63
2022-08-07T06:32:01.598Z,98577.78
2022-08-07T06:33:04.671Z,98569.59
2022-08-07T06:34:06.459Z,98574.84
2022-08-07T06:35:17.621Z,98575.78
2022-08-07T06:36:35.003Z,98573.56
2022-08-07T06:37:43.482Z,98573.38
2022-08-07T06:38:58.652Z,98580.50
2022-08-07T06:40:16.464Z,98575.84
2022-08-07T06:42:09.069Z,98575.13
2022-08-07T06:43:21.379Z,98569.28
2022-08-07T06:44:26.465Z,98544.91
2022-08-07T06:45:36.373Z,98567.38
2022-08-07T06:46:40.318Z,98567.41
2022-08-07T06:47:57.447Z,98557.94
2022-08-07T06:49:04.317Z,98555.56
2022-08-07T06:50:08.235Z,98570.09
2022-08-07T06:51:30.943Z,98561.78
2022-08-07T06:52:42.215Z,98546.03
2022-08-07T06:55:28.141Z,98558.94
2022-08-07T06:55:34.197Z,98566.28
2022-08-07T06:56:48.668Z,98563.06
2022-08-07T06:57:57.169Z,98556.66
2022-08-07T07:00:17.809Z,98559.66
2022-08-07T07:00:22.925Z,98567.44
2022-08-07T07:01:25.905Z,98571.97
2022-08-07T07:02:53.460Z,98562.38
2022-08-07T07:04:08.309Z,98571.66
2022-08-07T07:06:02.440Z,98571.59
2022-08-07T07:07:00.588Z,98576.47
2022-08-07T07:08:07.388Z,98571.00
2022-08-07T07:09:25.674Z,98574.56
2022-08-07T07:10:34.845Z,98568.72
2022-08-07T07:12:09.169Z,98574.97
2022-08-07T07:13:08.277Z,98575.19
2022-08-07T07:14:14.026Z,98575.25
2022-08-07T07:15:32.364Z,98572.09
2022-08-07T07:16:45.140Z,98578.78
2022-08-07T07:17:55.308Z,98583.91
2022-08-07T07:19:33.873Z,98582.34
2022-08-07T07:20:51.417Z,98581.16
2022-08-07T07:22:04.812Z,98572.13
2022-08-07T07:24:11.126Z,98579.19
2022-08-07T07:24:38.543Z,98576.75
2022-08-07T07:26:32.807Z,98571.88
2022-08-07T07:27:11.631Z,98579.16
2022-08-07T07:28:42.726Z,98575.53
2022-08-07T07:30:07.565Z,98583.94
2022-08-07T07:31:44.586Z,98586.81
2022-08-07T07:32:48.641Z,98592.38
2022-08-07T07:33:57.375Z,98592.94
2022-08-07T07:35:04.022Z,98592.94
2022-08-07T07:36:12.877Z,98594.44
2022-08-07T07:37:44.300Z,98586.13
2022-08-07T07:38:40.111Z,98591.53
2022-08-07T07:39:51.924Z,98598.94
2022-08-07T07:41:01.808Z,98593.03
2022-08-07T07:42:13.089Z,98594.59
2022-08-07T07:43:18.695Z,98588.47
2022-08-07T07:44:31.710Z,98600.31
2022-08-07T07:46:37.545Z,98595.13
2022-08-07T07:47:11.927Z,98599.81
2022-08-07T07:48:34.724Z,98595.97
2022-08-07T07:50:35.484Z,98595.34
2022-08-07T07:51:03.366Z,98594.56
2022-08-07T07:52:13.107Z,98603.63
2022-08-07T07:53:23.242Z,98602.78
2022-08-07T07:54:28.559Z,98590.09
2022-08-07T07:55:37.681Z,98591.66
2022-08-07T07:56:49.101Z,98603.41
2022-08-07T07:57:54.091Z,98585.72
2022-08-07T07:59:01.975Z,98598.22
2022-08-07T08:00:05.366Z,98593.16
2022-08-07T08:02:02.086Z,98600.59
2022-08-07T08:02:36.104Z,98598.91
2022-08-07T08:04:09.572Z,98600.91
2022-08-07T08:05:05.446Z,98601.97
2022-08-07T08:06:17.976Z,98600.06
2022-08-07T08:07:20.051Z,98599.28
2022-08-07T08:08:34.328Z,98582.34
2022-08-07T08:09:52.319Z,98584.28
2022-08-07T08:11:03.032Z,98592.56
2022-08-07T08:12:09.582Z,98597.28
2022-08-07T08:13:15.610Z,98591.78
2022-08-07T08:14:21.427Z,98596.53
2022-08-07T08:15:57.951Z,98598.44
2022-08-07T08:16:55.725Z,98595.75
2022-08-07T08:18:18.676Z,98586.31
2022-08-07T08:20:17.302Z,98597.28
2022-08-07T08:20:48.778Z,98596.13
2022-08-07T08:22:10.834Z,98602.03
2022-08-07T08:23:32.888Z,98597.25
2022-08-07T08:25:15.903Z,98596.44
2022-08-07T08:26:40.546Z,98587.69
2022-08-07T08:27:56.029Z,98593.56
2022-08-07T08:29:01.333Z,98586.94
2022-08-07T08:30:14.326Z,98580.28
2022-08-07T08:31:58.374Z,98587.03
2022-08-07T08:32:54.103Z,98593.75
2022-08-07T08:33:58.044Z,98581.56
2022-08-07T08:35:00.460Z,98589.44
2022-08-07T08:36:04.113Z,98586.28
2022-08-07T08:37:09.760Z,98587.78
2022-08-07T08:38:13.566Z,98590.69
2022-08-07T08:39:15.589Z,98592.38
2022-08-07T08:40:30.882Z,98582.25
2022-08-07T08:42:00.053Z,98579.53
2022-08-07T08:43:10.717Z,98582.38
2022-08-07T08:44:29.374Z,98575.66
2022-08-07T08:45:59.519Z,98582.81
2022-08-07T08:47:10.087Z,98583.75
2022-08-07T08:48:36.398Z,98583.09
2022-08-07T08:50:06.048Z,98580.41
2022-08-07T08:51:26.301Z,98579.28
2022-08-07T08:52:53.735Z,98579.09
2022-08-07T08:54:12.826Z,98566.38
2022-08-07T08:55:55.555Z,98576.16
2022-08-07T08:57:07.313Z,98576.03
2022-08-07T08:58:20.211Z,98575.88
2022-08-07T08:59:42.313Z,98570.06
2022-08-07T09:00:54.950Z,98567.00
2022-08-07T09:02:40.497Z,98569.41
2022-08-07T09:04:08.016Z,98567.16
2022-08-07T09:05:32.006Z,98569.78
2022-08-07T09:07:02.415Z,98556.44
2022-08-07T09:08:24.368Z,98563.78
2022-08-07T09:10:04.611Z,98567.38
2022-08-07T09:11:43.533Z,98560.28
2022-08-07T09:13:06.989Z,98551.88
2022-08-07T09:14:14.395Z,98566.06
2022-08-07T09:16:24.534Z,98565.41
2022-08-07T09:17:07.921Z,98574.50
2022-08-07T09:18:41.583Z,98568.16
2022-08-07T09:20:35.653Z,98569.25
2022-08-07T09:22:22.591Z,98559.00
2022-08-07T09:24:33.686Z,98564.47
2022-08-07T09:25:11.964Z,98567.22
2022-08-07T09:26:28.192Z,98570.38
2022-08-07T09:27:31.294Z,98555.13
2022-08-07T09:30:01.924Z,98550.16
2022-08-07T09:30:09.476Z,98565.47
2022-08-07T09:31:11.191Z,98557.63
2022-08-07T09:32:35.637Z,98566.44
2022-08-07T09:33:56.660Z,98563.44
2022-08-07T09:36:04.048Z,98554.38
2022-08-07T09:37:12.576Z,98552.22
2022-08-07T09:38:19.925Z,98560.16
2022-08-07T09:39:53.610Z,98520.06
2022-08-07T09:41:16.912Z,98557.00
2022-08-07T09:42:25.266Z,98556.31
2022-08-07T09:44:06.370Z,98557.13
2022-08-07T09:47:25.943Z,98553.53
2022-08-07T09:47:52.544Z,98549.88
2022-08-07T09:48:28.742Z,98546.19
2022-08-07T09:50:00.886Z,98549.59
2022-08-07T09:52:16.539Z,98551.09
2022-08-07T09:53:02.253Z,98546.31
2022-08-07T09:54:08.362Z,98541.38
2022-08-07T09:56:03.933Z,98543.34
2022-08-07T09:57:19.962Z,98541.19
2022-08-07T09:58:48.585Z,98538.63
2022-08-07T10:00:03.821Z,98534.88
2022-08-07T10:01:51.375Z,98528.47
2022-08-07T10:04:03.336Z,98530.94
2022-08-07T10:05:12.494Z,98531.38
2022-08-07T10:06:31.782Z,98525.44
2022-08-07T10:08:13.073Z,98509.75
2022-08-07T10:09:59.175Z,98531.75
2022-08-07T10:12:02.012Z,98527.50
2022-08-07T10:13:55.003Z,98527.25
2022-08-07T10:14:56.569Z,98528.84
2022-08-07T10:16:13.145Z,98528.81
2022-08-07T10:18:01.293Z,98531.91
2022-08-07T10:19:42.125Z,98525.63
2022-08-07T10:21:05.361Z,98527.56
2022-08-07T10:22:36.788Z,98522.13
2022-08-07T10:24:21.312Z,98524.84
2022-08-07T10:25:51.940Z,98520.91
2022-08-07T10:27:10.402Z,98527.19
2022-08-07T10:28:13.150Z,98525.63
2022-08-07T10:29:39.376Z,98527.22
2022-08-07T10:31:11.331Z,98523.69
2022-08-07T10:32:51.074Z,98520.53
2022-08-07T10:34:40.402Z,98523.28
2022-08-07T10:36:17.978Z,98522.47
2022-08-07T10:38:35.068Z,98528.69
2022-08-07T10:39:42.050Z,98520.78
2022-08-07T10:41:12.136Z,98526.25
2022-08-07T10:42:31.203Z,98523.03
2022-08-07T10:44:02.301Z,98532.44
2022-08-07T10:45:12.039Z,98522.22
2022-08-07T10:46:24.308Z,98518.34
2022-08-07T10:47:52.912Z,98517.94
2022-08-07T10:49:14.934Z,98521.00
2022-08-07T10:50:25.913Z,98522.06
2022-08-07T10:51:39.619Z,98514.97
2022-08-07T10:53:05.383Z,98515.72
2022-08-07T10:54:38.271Z,98521.53
2022-08-07T10:55:50.631Z,98523.78
2022-08-07T10:57:13.887Z,98511.94
2022-08-07T10:58:59.553Z,98513.84
2022-08-07T11:00:09.702Z,98514.53
2022-08-07T11:02:27.400Z,98507.47
2022-08-07T11:03:52.751Z,98516.16
2022-08-07T11:05:24.788Z,98503.00
2022-08-07T11:07:15.039Z,98490.06
2022-08-07T11:10:07.567Z,98490.63
2022-08-07T11:11:08.170Z,98494.72
2022-08-07T11:12:43.297Z,98491.75
2022-08-07T11:14:45.608Z,98486.34
2022-08-07T11:15:31.476Z,98487.50
2022-08-07T11:16:49.415Z,98480.78
2022-08-07T11:18:04.716Z,98483.03
2022-08-07T11:19:27.468Z,98481.31
2022-08-07T11:20:56.710Z,98476.25
2022-08-07T11:22:33.309Z,98475.53
2022-08-07T11:23:48.452Z,98485.94
2022-08-07T11:25:00.440Z,98481.25
2022-08-07T11:26:17.655Z,98482.72
2022-08-07T11:28:01.276Z,98474.88
2022-08-07T11:29:41.219Z,98472.94
2022-08-07T11:30:59.438Z,98467.03
2022-08-07T11:32:29.430Z,98469.06
2022-08-07T11:34:20.586Z,98480.03
2022-08-07T11:35:30.311Z,98472.94
2022-08-07T11:36:54.291Z,98481.59
2022-08-07T11:38:21.439Z,98465.09
2022-08-07T11:40:00.450Z,98471.00
2022-08-07T11:41:18.013Z,98477.66
2022-08-07T11:42:54.364Z,98465.81
2022-08-07T11:44:12.789Z,98466.13
2022-08-07T11:45:35.507Z,98471.25
2022-08-07T11:46:50.227Z,98465.44
2022-08-07T11:48:18.309Z,98461.94
2022-08-07T11:50:30.772Z,98450.16
2022-08-07T11:51:44.621Z,98461.13
2022-08-07T11:53:01.851Z,98455.59
2022-08-07T11:54:54.991Z,98453.94
2022-08-07T11:56:30.784Z,98454.34
2022-08-07T11:58:16.232Z,98452.38
2022-08-07T12:00:11.140Z,98448.94
2022-08-07T12:01:05.233Z,98449.75
2022-08-07T12:02:17.673Z,98456.81
2022-08-07T12:04:05.572Z,98448.75
2022-08-07T12:05:49.001Z,98462.28
2022-08-07T12:07:20.159Z,98461.44
2022-08-07T12:08:45.595Z,98457.22
2022-08-07T12:09:57.258Z,98455.44
2022-08-07T12:11:21.516Z,98458.56
2022-08-07T12:12:35.679Z,98453.06
2022-08-07T12:14:01.447Z,98448.69
2022-08-07T12:15:16.989Z,98456.31
2022-08-07T12:16:42.631Z,98450.09
2022-08-07T12:17:58.594Z,98439.88
2022-08-07T12:19:22.074Z,98450.09
2022-08-07T12:20:49.362Z,98443.38
2022-08-07T12:22:38.742Z,98454.72
2022-08-07T12:24:07.298Z,98449.84
2022-08-07T12:26:05.685Z,98452.34
2022-08-07T12:27:18.725Z,98448.38
2022-08-07T12:28:57.594Z,98446.88
2022-08-07T12:30:07.453Z,98456.03
2022-08-07T12:31:17.326Z,98448.31
2022-08-07T12:32:38.241Z,98449.69
2022-08-07T12:34:00.662Z,98434.06
2022-08-07T12:35:05.576Z,98430.72
2022-08-07T12:36:11.436Z,98437.81
2022-08-07T12:37:16.936Z,98437.88
2022-08-07T12:38:39.136Z,98432.94
2022-08-07T12:39:51.278Z,98435.41
2022-08-07T12:40:55.435Z,98426.47
2022-08-07T12:42:01.230Z,98425.72
2022-08-07T12:43:09.266Z,98431.63
2022-08-07T12:44:17.368Z,98420.25
2022-08-07T12:45:30.563Z,98421.41
2022-08-07T12:47:06.260Z,98435.63
2022-08-07T12:48:52.093Z,98437.50
2022-08-07T12:50:34.081Z,98452.78
2022-08-07T12:52:14.377Z,98451.41
2022-08-07T12:53:22.421Z,98451.06
2022-08-07T12:54:38.933Z,98454.56
2022-08-07T12:56:03.975Z,98453.88
2022-08-07T12:57:09.594Z,98449.50
2022-08-07T12:58:15.979Z,98451.09
2022-08-07T12:59:21.780Z,98441.28
2022-08-07T13:00:35.907Z,98449.56
2022-08-07T13:01:55.790Z,98449.72
2022-08-07T13:03:54.802Z,98453.19
2022-08-07T13:05:01.770Z,98448.41
2022-08-07T13:06:27.014Z,98448.50
2022-08-07T13:08:13.699Z,98439.13
2022-08-07T13:10:20.454Z,98444.22
2022-08-07T13:12:02.658Z,98440.50
2022-08-07T13:13:46.971Z,98439.72
2022-08-07T13:15:09.573Z,98443.66
2022-08-07T13:16:36.610Z,98424.25
2022-08-07T13:17:42.704Z,98444.28
2022-08-07T13:18:59.560Z,98448.22
2022-08-07T13:20:09.871Z,98447.50
2022-08-07T13:21:37.388Z,98455.31
2022-08-07T13:23:09.719Z,98451.34
2022-08-07T13:24:29.464Z,98443.38
2022-08-07T13:26:04.269Z,98451.56
2022-08-07T13:27:13.456Z,98450.44
2022-08-07T13:28:34.021Z,98441.00
2022-08-07T13:29:52.972Z,98451.59
2022-08-07T13:31:06.391Z,98443.25
2022-08-07T13:32:38.795Z,98458.84
2022-08-07T13:34:32.034Z,98458.97
2022-08-07T13:35:24.497Z,98469.28
2022-08-07T13:37:30.622Z,98459.59
2022-08-07T13:39:01.806Z,98461.63
2022-08-07T13:40:35.914Z,98481.91
2022-08-07T13:41:42.511Z,98479.03
2022-08-07T13:42:51.484Z,98465.34
2022-08-07T13:43:56.531Z,98457.28
2022-08-07T13:46:07.130Z,98478.78
2022-08-07T13:46:28.266Z,98475.44
2022-08-07T13:48:06.842Z,98473.78
2022-08-07T13:49:02.087Z,98470.66
2022-08-07T13:50:34.310Z,98470.97
2022-08-07T13:52:04.681Z,98473.28
2022-08-07T13:52:55.384Z,98478.75
2022-08-07T13:54:03.371Z,98473.34
2022-08-07T13:55:34.136Z,98476.38
2022-08-07T13:56:51.675Z,98477.09
2022-08-07T13:58:28.050Z,98472.91
2022-08-07T13:59:33.884Z,98494.13
2022-08-07T14:00:39.476Z,98491.66
2022-08-07T14:02:07.790Z,98488.41
2022-08-07T14:03:09.818Z,98497.34
2022-08-07T14:04:17.161Z,98497.81
2022-08-07T14:05:25.126Z,98481.78
2022-08-07T14:06:42.080Z,98490.06
2022-08-07T14:07:59.340Z,98495.47
2022-08-07T14:09:04.781Z,98509.81
2022-08-07T14:10:16.328Z,98511.03
2022-08-07T14:11:22.182Z,98490.22
2022-08-07T14:12:36.224Z,98506.66
2022-08-07T14:13:53.418Z,98498.16
2022-08-07T14:15:08.976Z,98501.56
2022-08-07T14:16:16.115Z,98505.19
2022-08-07T14:18:12.845Z,98503.25
2022-08-07T14:18:49.855Z,98504.16
2022-08-07T14:20:40.571Z,98499.63
2022-08-07T14:22:04.266Z,98500.47
2022-08-07T14:23:59.053Z,98505.78
2022-08-07T14:24:45.670Z,98504.63
2022-08-07T14:25:54.844Z,98506.00
2022-08-07T14:27:00.373Z,98512.19
2022-08-07T14:28:10.588Z,98504.13
2022-08-07T14:30:02.983Z,98504.97
2022-08-07T14:30:47.350Z,98513.06
2022-08-07T14:31:56.379Z,98517.59
2022-08-07T14:33:04.735Z,98507.84
2022-08-07T14:34:07.879Z,98507.88
2022-08-07T14:35:44.709Z,98513.22
2022-08-07T14:36:41.636Z,98508.81
2022-08-07T14:38:05.608Z,98507.78
2022-08-07T14:39:12.518Z,98518.53
2022-08-07T14:40:35.317Z,98508.78
2022-08-07T14:42:20.664Z,98509.59
2022-08-07T14:43:58.779Z,98506.53
2022-08-07T14:44:33.009Z,98502.91
2022-08-07T14:45:46.444Z,98500.31
2022-08-07T14:46:58.678Z,98493.03
2022-08-07T14:49:56.789Z,98504.38
2022-08-07T14:51:05.046Z,98509.22
2022-08-07T14:52:10.559Z,98501.69
2022-08-07T14:53:13.927Z,98505.31
2022-08-07T14:54:34.415Z,98507.81
2022-08-07T14:55:55.834Z,98507.69
2022-08-07T14:57:02.836Z,98523.78
2022-08-07T14:58:06.159Z,98518.25